sensor_id;sensor_type;location;lat;lon;timestamp;pressure;altitude;pressure_sealevel;temperature;humidity
63090;BME280;49174;43.198;27.824;2023-04-27T00:00:09;101035.38;;;10.12;92.44
63090;BME280;49174;43.198;27.824;2023-04-27T00:02:36;101038.75;;;10.14;93.08
63090;BME280;49174;43.198;27.824;2023-04-27T00:05:03;101038.91;;;10.13;93.15
63090;BME280;49174;43.198;27.824;2023-04-27T00:07:30;101051.28;;;10.07;94.13
63090;BME280;49174;43.198;27.824;2023-04-27T00:09:56;101045.97;;;9.99;94.47
63090;BME280;49174;43.198;27.824;2023-04-27T00:12:21;101058.06;;;10.03;93.70
63090;BME280;49174;43.198;27.824;2023-04-27T00:14:47;101051.66;;;10.04;93.36
63090;BME280;49174;43.198;27.824;2023-04-27T00:17:13;101059.06;;;10.02;93.78
63090;BME280;49174;43.198;27.824;2023-04-27T00:19:39;101061.13;;;10.00;87.15
63090;BME280;49174;43.198;27.824;2023-04-27T00:22:06;101071.19;;;10.06;86.30
63090;BME280;49174;43.198;27.824;2023-04-27T00:24:32;101065.50;;;10.01;87.01
63090;BME280;49174;43.198;27.824;2023-04-27T00:26:58;101067.44;;;9.92;89.62
63090;BME280;49174;43.198;27.824;2023-04-27T00:29:24;101067.63;;;9.91;85.74
63090;BME280;49174;43.198;27.824;2023-04-27T00:31:49;101068.66;;;9.90;89.91
63090;BME280;49174;43.198;27.824;2023-04-27T00:34:15;101070.41;;;9.82;86.27
63090;BME280;49174;43.198;27.824;2023-04-27T00:36:40;101070.41;;;9.82;86.46
63090;BME280;49174;43.198;27.824;2023-04-27T00:39:06;101067.03;;;9.80;87.33
63090;BME280;49174;43.198;27.824;2023-04-27T00:41:31;101076.63;;;9.83;89.88
63090;BME280;49174;43.198;27.824;2023-04-27T00:43:57;101073.66;;;9.78;87.49
63090;BME280;49174;43.198;27.824;2023-04-27T00:46:23;101078.19;;;9.77;88.13
63090;BME280;49174;43.198;27.824;2023-04-27T00:48:50;101083.13;;;9.74;85.55
63090;BME280;49174;43.198;27.824;2023-04-27T00:51:16;101078.84;;;9.65;86.57
63090;BME280;49174;43.198;27.824;2023-04-27T00:53:42;101076.78;;;9.67;87.24
63090;BME280;49174;43.198;27.824;2023-04-27T00:56:07;101087.56;;;9.67;85.80
63090;BME280;49174;43.198;27.824;2023-04-27T00:58:33;101093.44;;;9.70;87.25
63090;BME280;49174;43.198;27.824;2023-04-27T01:00:59;101091.19;;;9.59;85.68
63090;BME280;49174;43.198;27.824;2023-04-27T01:03:25;101088.72;;;9.49;84.84
63090;BME280;49174;43.198;27.824;2023-04-27T01:05:51;101099.41;;;9.43;84.82
63090;BME280;49174;43.198;27.824;2023-04-27T01:08:17;101103.88;;;9.50;85.15
63090;BME280;49174;43.198;27.824;2023-04-27T01:10:43;101100.34;;;9.50;85.08
63090;BME280;49174;43.198;27.824;2023-04-27T01:13:10;101109.91;;;9.52;80.72
63090;BME280;49174;43.198;27.824;2023-04-27T01:15:35;101107.13;;;9.46;80.29
63090;BME280;49174;43.198;27.824;2023-04-27T01:18:01;101106.75;;;9.49;82.67
63090;BME280;49174;43.198;27.824;2023-04-27T01:20:27;101098.25;;;9.37;81.67
63090;BME280;49174;43.198;27.824;2023-04-27T01:22:58;101097.00;;;9.25;82.00
63090;BME280;49174;43.198;27.824;2023-04-27T01:25:24;101102.38;;;9.25;78.86
63090;BME280;49174;43.198;27.824;2023-04-27T01:27:50;101097.19;;;9.23;78.37
63090;BME280;49174;43.198;27.824;2023-04-27T01:30:15;101096.47;;;9.29;77.14
63090;BME280;49174;43.198;27.824;2023-04-27T01:32:41;101097.28;;;9.30;79.36
63090;BME280;49174;43.198;27.824;2023-04-27T01:35:07;101099.69;;;9.25;79.44
63090;BME280;49174;43.198;27.824;2023-04-27T01:37:33;101103.88;;;9.27;81.10
63090;BME280;49174;43.198;27.824;2023-04-27T01:39:59;101097.66;;;9.27;83.82
63090;BME280;49174;43.198;27.824;2023-04-27T01:42:24;101107.53;;;9.34;77.02
63090;BME280;49174;43.198;27.824;2023-04-27T01:44:50;101094.81;;;9.28;80.13
63090;BME280;49174;43.198;27.824;2023-04-27T01:47:15;101101.25;;;9.19;78.90
63090;BME280;49174;43.198;27.824;2023-04-27T01:49:41;101104.50;;;9.14;78.84
63090;BME280;49174;43.198;27.824;2023-04-27T01:52:07;101106.34;;;9.14;81.25
63090;BME280;49174;43.198;27.824;2023-04-27T01:54:32;101112.72;;;9.13;78.46
63090;BME280;49174;43.198;27.824;2023-04-27T01:56:58;101115.31;;;9.06;80.18
63090;BME280;49174;43.198;27.824;2023-04-27T01:59:23;101119.72;;;8.99;81.61
63090;BME280;49174;43.198;27.824;2023-04-27T02:01:49;101123.50;;;9.13;79.30
63090;BME280;49174;43.198;27.824;2023-04-27T02:04:14;101113.41;;;9.15;78.94
63090;BME280;49174;43.198;27.824;2023-04-27T02:06:40;101117.16;;;9.06;79.82
63090;BME280;49174;43.198;27.824;2023-04-27T02:09:06;101119.19;;;9.04;77.66
63090;BME280;49174;43.198;27.824;2023-04-27T02:11:31;101104.78;;;8.88;78.84
63090;BME280;49174;43.198;27.824;2023-04-27T02:13:57;101107.38;;;8.82;77.13
63090;BME280;49174;43.198;27.824;2023-04-27T02:16:22;101107.88;;;8.77;79.00
63090;BME280;49174;43.198;27.824;2023-04-27T02:18:48;101126.06;;;8.75;77.72
63090;BME280;49174;43.198;27.824;2023-04-27T02:21:13;101122.25;;;8.69;78.23
63090;BME280;49174;43.198;27.824;2023-04-27T02:23:39;101120.72;;;8.67;78.39
63090;BME280;49174;43.198;27.824;2023-04-27T02:26:04;101118.34;;;8.72;76.33
63090;BME280;49174;43.198;27.824;2023-04-27T02:28:30;101107.28;;;8.67;77.06
63090;BME280;49174;43.198;27.824;2023-04-27T02:30:56;101089.81;;;8.63;77.73
63090;BME280;49174;43.198;27.824;2023-04-27T02:33:22;101104.63;;;8.59;76.08
63090;BME280;49174;43.198;27.824;2023-04-27T02:35:47;101108.31;;;8.58;77.24
63090;BME280;49174;43.198;27.824;2023-04-27T02:38:13;101119.06;;;8.58;76.06
63090;BME280;49174;43.198;27.824;2023-04-27T02:40:38;101100.59;;;8.55;77.18
63090;BME280;49174;43.198;27.824;2023-04-27T02:43:04;101118.59;;;8.54;78.49
63090;BME280;49174;43.198;27.824;2023-04-27T02:45:29;101134.91;;;8.53;77.35
63090;BME280;49174;43.198;27.824;2023-04-27T02:47:55;101141.63;;;8.48;77.56
63090;BME280;49174;43.198;27.824;2023-04-27T02:50:21;101154.72;;;8.52;78.72
63090;BME280;49174;43.198;27.824;2023-04-27T02:52:46;101151.88;;;8.53;78.66
63090;BME280;49174;43.198;27.824;2023-04-27T02:55:12;101165.13;;;8.55;77.18
63090;BME280;49174;43.198;27.824;2023-04-27T02:57:38;101168.84;;;8.54;78.39
63090;BME280;49174;43.198;27.824;2023-04-27T03:00:05;101169.00;;;8.52;79.77
63090;BME280;49174;43.198;27.824;2023-04-27T03:02:31;101171.03;;;8.58;81.43
63090;BME280;49174;43.198;27.824;2023-04-27T03:04:56;101172.88;;;8.58;82.41
63090;BME280;49174;43.198;27.824;2023-04-27T03:07:23;101179.63;;;8.54;83.97
63090;BME280;49174;43.198;27.824;2023-04-27T03:09:48;101175.25;;;8.53;84.73
63090;BME280;49174;43.198;27.824;2023-04-27T03:12:14;101169.53;;;8.56;84.93
63090;BME280;49174;43.198;27.824;2023-04-27T03:14:39;101152.72;;;8.54;85.25
63090;BME280;49174;43.198;27.824;2023-04-27T03:17:05;101161.47;;;8.47;84.72
63090;BME280;49174;43.198;27.824;2023-04-27T03:19:30;101166.16;;;8.54;84.44
63090;BME280;49174;43.198;27.824;2023-04-27T03:21:56;101159.06;;;8.61;85.24
63090;BME280;49174;43.198;27.824;2023-04-27T03:24:21;101174.91;;;8.56;85.64
63090;BME280;49174;43.198;27.824;2023-04-27T03:26:50;101169.88;;;8.53;85.53
63090;BME280;49174;43.198;27.824;2023-04-27T03:29:16;101163.00;;;8.50;85.47
63090;BME280;49174;43.198;27.824;2023-04-27T03:31:42;101172.06;;;8.49;86.26
63090;BME280;49174;43.198;27.824;2023-04-27T03:34:07;101179.97;;;8.50;85.51
63090;BME280;49174;43.198;27.824;2023-04-27T03:36:33;101177.75;;;8.54;86.60
63090;BME280;49174;43.198;27.824;2023-04-27T03:38:59;101185.00;;;8.54;84.25
63090;BME280;49174;43.198;27.824;2023-04-27T03:41:24;101169.88;;;8.53;83.34
63090;BME280;49174;43.198;27.824;2023-04-27T03:43:49;101175.03;;;8.62;83.13
63090;BME280;49174;43.198;27.824;2023-04-27T03:46:17;101183.94;;;8.63;82.39
63090;BME280;49174;43.198;27.824;2023-04-27T03:48:43;101196.56;;;8.62;80.62
63090;BME280;49174;43.198;27.824;2023-04-27T03:51:08;101210.16;;;8.69;80.66
63090;BME280;49174;43.198;27.824;2023-04-27T03:53:34;101191.41;;;8.44;76.70
63090;BME280;49174;43.198;27.824;2023-04-27T03:56:01;101202.63;;;8.64;77.69
63090;BME280;49174;43.198;27.824;2023-04-27T03:58:27;101212.19;;;8.67;76.83
63090;BME280;49174;43.198;27.824;2023-04-27T04:00:53;101186.94;;;8.76;75.10
63090;BME280;49174;43.198;27.824;2023-04-27T04:03:19;101207.97;;;8.72;74.65
63090;BME280;49174;43.198;27.824;2023-04-27T04:05:45;101215.22;;;8.64;76.34
63090;BME280;49174;43.198;27.824;2023-04-27T04:08:12;101213.03;;;8.59;76.50
63090;BME280;49174;43.198;27.824;2023-04-27T04:10:37;101204.97;;;8.59;77.05
63090;BME280;49174;43.198;27.824;2023-04-27T04:13:03;101209.53;;;8.59;75.86
63090;BME280;49174;43.198;27.824;2023-04-27T04:15:28;101220.09;;;8.60;76.74
63090;BME280;49174;43.198;27.824;2023-04-27T04:17:54;101231.66;;;8.69;75.82
63090;BME280;49174;43.198;27.824;2023-04-27T04:20:20;101237.03;;;8.69;74.95
63090;BME280;49174;43.198;27.824;2023-04-27T04:22:46;101225.28;;;8.70;74.79
63090;BME280;49174;43.198;27.824;2023-04-27T04:25:12;101218.22;;;8.69;76.46
63090;BME280;49174;43.198;27.824;2023-04-27T04:27:38;101222.75;;;8.77;75.02
63090;BME280;49174;43.198;27.824;2023-04-27T04:30:04;101233.00;;;8.81;75.33
63090;BME280;49174;43.198;27.824;2023-04-27T04:32:30;101240.03;;;8.82;76.03
63090;BME280;49174;43.198;27.824;2023-04-27T04:34:58;101236.88;;;8.79;75.38
63090;BME280;49174;43.198;27.824;2023-04-27T04:37:26;101238.38;;;8.81;75.10
63090;BME280;49174;43.198;27.824;2023-04-27T04:39:52;101257.22;;;8.81;74.52
63090;BME280;49174;43.198;27.824;2023-04-27T04:42:17;101251.13;;;8.87;73.99
63090;BME280;49174;43.198;27.824;2023-04-27T04:44:43;101253.81;;;8.87;75.08
63090;BME280;49174;43.198;27.824;2023-04-27T04:47:09;101265.28;;;8.81;75.91
63090;BME280;49174;43.198;27.824;2023-04-27T04:49:35;101263.88;;;8.93;75.58
63090;BME280;49174;43.198;27.824;2023-04-27T04:52:01;101264.19;;;9.07;74.16
63090;BME280;49174;43.198;27.824;2023-04-27T04:54:28;101276.09;;;9.12;71.69
63090;BME280;49174;43.198;27.824;2023-04-27T04:56:54;101263.13;;;9.16;73.49
63090;BME280;49174;43.198;27.824;2023-04-27T04:59:26;101261.78;;;9.20;73.86
63090;BME280;49174;43.198;27.824;2023-04-27T05:01:52;101264.13;;;9.23;74.65
63090;BME280;49174;43.198;27.824;2023-04-27T05:04:20;101278.69;;;9.37;72.93
63090;BME280;49174;43.198;27.824;2023-04-27T05:06:45;101278.50;;;9.38;71.55
63090;BME280;49174;43.198;27.824;2023-04-27T05:09:11;101269.44;;;9.39;73.39
63090;BME280;49174;43.198;27.824;2023-04-27T05:11:36;101278.16;;;9.42;72.19
63090;BME280;49174;43.198;27.824;2023-04-27T05:14:02;101285.72;;;9.46;72.29
63090;BME280;49174;43.198;27.824;2023-04-27T05:16:28;101293.44;;;9.49;73.27
63090;BME280;49174;43.198;27.824;2023-04-27T05:18:54;101287.00;;;9.58;74.71
63090;BME280;49174;43.198;27.824;2023-04-27T05:21:20;101292.16;;;9.68;73.79
63090;BME280;49174;43.198;27.824;2023-04-27T05:23:47;101309.84;;;9.71;72.85
63090;BME280;49174;43.198;27.824;2023-04-27T05:26:13;101307.81;;;9.73;73.65
63090;BME280;49174;43.198;27.824;2023-04-27T05:28:38;101310.16;;;9.76;73.02
63090;BME280;49174;43.198;27.824;2023-04-27T05:31:04;101301.88;;;9.77;73.16
63090;BME280;49174;43.198;27.824;2023-04-27T05:33:29;101308.72;;;9.88;72.63
63090;BME280;49174;43.198;27.824;2023-04-27T05:35:55;101306.44;;;10.00;74.05
63090;BME280;49174;43.198;27.824;2023-04-27T05:38:20;101312.78;;;10.07;73.11
63090;BME280;49174;43.198;27.824;2023-04-27T05:40:46;101316.75;;;10.19;71.93
63090;BME280;49174;43.198;27.824;2023-04-27T05:43:11;101301.59;;;10.18;72.80
63090;BME280;49174;43.198;27.824;2023-04-27T05:45:39;101309.50;;;10.20;70.44
63090;BME280;49174;43.198;27.824;2023-04-27T05:48:05;101329.53;;;10.25;71.92
63090;BME280;49174;43.198;27.824;2023-04-27T05:50:31;101323.81;;;10.28;69.73
63090;BME280;49174;43.198;27.824;2023-04-27T05:52:56;101323.97;;;10.27;71.82
63090;BME280;49174;43.198;27.824;2023-04-27T05:55:22;101327.19;;;10.22;70.52
63090;BME280;49174;43.198;27.824;2023-04-27T05:57:47;101319.09;;;10.22;68.08
63090;BME280;49174;43.198;27.824;2023-04-27T06:00:14;101329.59;;;10.40;68.79
63090;BME280;49174;43.198;27.824;2023-04-27T06:02:41;101323.22;;;10.56;70.78
63090;BME280;49174;43.198;27.824;2023-04-27T06:05:06;101335.53;;;10.73;71.74
63090;BME280;49174;43.198;27.824;2023-04-27T06:07:32;101348.88;;;10.90;71.62
63090;BME280;49174;43.198;27.824;2023-04-27T06:09:58;101349.72;;;11.05;68.56
63090;BME280;49174;43.198;27.824;2023-04-27T06:12:23;101347.59;;;11.15;68.95
63090;BME280;49174;43.198;27.824;2023-04-27T06:14:49;101357.84;;;11.35;67.93
63090;BME280;49174;43.198;27.824;2023-04-27T06:17:14;101353.00;;;11.45;66.71
63090;BME280;49174;43.198;27.824;2023-04-27T06:19:40;101357.44;;;11.53;65.09
63090;BME280;49174;43.198;27.824;2023-04-27T06:22:05;101357.44;;;11.68;66.74
63090;BME280;49174;43.198;27.824;2023-04-27T06:24:31;101360.78;;;11.70;62.61
63090;BME280;49174;43.198;27.824;2023-04-27T06:26:56;101353.97;;;11.89;66.25
63090;BME280;49174;43.198;27.824;2023-04-27T06:29:22;101360.47;;;11.94;63.03
63090;BME280;49174;43.198;27.824;2023-04-27T06:31:47;101353.13;;;11.88;61.80
63090;BME280;49174;43.198;27.824;2023-04-27T06:34:13;101356.75;;;12.17;62.78
63090;BME280;49174;43.198;27.824;2023-04-27T06:36:39;101364.25;;;12.36;63.65
63090;BME280;49174;43.198;27.824;2023-04-27T06:39:05;101350.97;;;12.63;61.76
63090;BME280;49174;43.198;27.824;2023-04-27T06:41:30;101360.09;;;12.62;59.79
63090;BME280;49174;43.198;27.824;2023-04-27T06:43:56;101353.94;;;12.68;60.20
63090;BME280;49174;43.198;27.824;2023-04-27T06:46:21;101367.59;;;12.60;58.50
63090;BME280;49174;43.198;27.824;2023-04-27T06:48:47;101361.59;;;12.64;60.72
63090;BME280;49174;43.198;27.824;2023-04-27T06:51:12;101356.78;;;12.60;57.70
63090;BME280;49174;43.198;27.824;2023-04-27T06:53:38;101356.38;;;12.63;59.69
63090;BME280;49174;43.198;27.824;2023-04-27T06:56:05;101363.91;;;12.67;59.19
63090;BME280;49174;43.198;27.824;2023-04-27T06:58:31;101362.63;;;12.63;60.21
63090;BME280;49174;43.198;27.824;2023-04-27T07:00:57;101361.78;;;12.63;58.38
63090;BME280;49174;43.198;27.824;2023-04-27T07:03:23;101365.16;;;12.65;57.74
63090;BME280;49174;43.198;27.824;2023-04-27T07:05:50;101359.75;;;12.43;57.44
63090;BME280;49174;43.198;27.824;2023-04-27T07:08:16;101354.13;;;12.45;59.43
63090;BME280;49174;43.198;27.824;2023-04-27T07:10:42;101348.00;;;12.58;59.65
63090;BME280;49174;43.198;27.824;2023-04-27T07:13:07;101351.84;;;12.70;59.05
63090;BME280;49174;43.198;27.824;2023-04-27T07:15:33;101346.75;;;12.82;60.17
63090;BME280;49174;43.198;27.824;2023-04-27T07:17:58;101343.44;;;12.86;57.70
63090;BME280;49174;43.198;27.824;2023-04-27T07:20:24;101347.91;;;13.01;60.46
63090;BME280;49174;43.198;27.824;2023-04-27T07:22:50;101352.19;;;13.23;56.39
63090;BME280;49174;43.198;27.824;2023-04-27T07:25:16;101360.59;;;13.28;57.18
63090;BME280;49174;43.198;27.824;2023-04-27T07:27:41;101354.38;;;13.34;53.54
63090;BME280;49174;43.198;27.824;2023-04-27T07:30:07;101338.34;;;13.33;54.90
63090;BME280;49174;43.198;27.824;2023-04-27T07:32:35;101343.53;;;13.34;56.14
63090;BME280;49174;43.198;27.824;2023-04-27T07:35:01;101344.44;;;13.41;56.00
63090;BME280;49174;43.198;27.824;2023-04-27T07:37:28;101343.22;;;13.51;56.33
63090;BME280;49174;43.198;27.824;2023-04-27T07:39:53;101340.78;;;13.69;55.80
63090;BME280;49174;43.198;27.824;2023-04-27T07:42:20;101336.25;;;13.83;52.75
63090;BME280;49174;43.198;27.824;2023-04-27T07:44:49;101326.47;;;13.82;52.75
63090;BME280;49174;43.198;27.824;2023-04-27T07:47:15;101362.19;;;13.99;55.32
63090;BME280;49174;43.198;27.824;2023-04-27T07:49:43;101343.81;;;13.94;49.42
63090;BME280;49174;43.198;27.824;2023-04-27T07:52:10;101347.16;;;14.09;51.24
63090;BME280;49174;43.198;27.824;2023-04-27T07:54:35;101349.72;;;14.24;49.73
63090;BME280;49174;43.198;27.824;2023-04-27T07:57:06;101346.84;;;14.72;49.54
63090;BME280;49174;43.198;27.824;2023-04-27T07:59:32;101359.97;;;15.15;49.47
63090;BME280;49174;43.198;27.824;2023-04-27T08:01:58;101342.44;;;15.05;47.65
63090;BME280;49174;43.198;27.824;2023-04-27T08:04:23;101350.34;;;15.19;47.87
63090;BME280;49174;43.198;27.824;2023-04-27T08:06:49;101349.38;;;15.59;49.19
63090;BME280;49174;43.198;27.824;2023-04-27T08:09:15;101351.34;;;15.90;46.01
63090;BME280;49174;43.198;27.824;2023-04-27T08:11:40;101350.06;;;15.99;42.26
63090;BME280;49174;43.198;27.824;2023-04-27T08:14:06;101346.72;;;16.29;46.76
63090;BME280;49174;43.198;27.824;2023-04-27T08:16:40;101349.03;;;16.57;45.87
63090;BME280;49174;43.198;27.824;2023-04-27T08:19:06;101345.13;;;16.78;46.24
63090;BME280;49174;43.198;27.824;2023-04-27T08:21:34;101346.72;;;16.61;45.91
63090;BME280;49174;43.198;27.824;2023-04-27T08:23:59;101340.16;;;16.93;45.38
63090;BME280;49174;43.198;27.824;2023-04-27T08:26:25;101331.22;;;17.05;44.66
63090;BME280;49174;43.198;27.824;2023-04-27T08:28:50;101355.78;;;16.80;43.30
63090;BME280;49174;43.198;27.824;2023-04-27T08:31:16;101355.00;;;16.97;39.52
63090;BME280;49174;43.198;27.824;2023-04-27T08:33:41;101363.09;;;16.86;44.35
63090;BME280;49174;43.198;27.824;2023-04-27T08:36:07;101361.09;;;17.00;44.03
63090;BME280;49174;43.198;27.824;2023-04-27T08:38:33;101372.91;;;17.12;41.92
63090;BME280;49174;43.198;27.824;2023-04-27T08:40:59;101374.81;;;17.11;42.98
63090;BME280;49174;43.198;27.824;2023-04-27T08:43:25;101373.06;;;17.35;41.70
63090;BME280;49174;43.198;27.824;2023-04-27T08:45:51;101368.91;;;17.51;41.50
63090;BME280;49174;43.198;27.824;2023-04-27T08:48:17;101364.56;;;17.07;38.34
63090;BME280;49174;43.198;27.824;2023-04-27T08:50:44;101367.88;;;16.90;41.52
63090;BME280;49174;43.198;27.824;2023-04-27T08:53:19;101369.56;;;17.10;42.30
63090;BME280;49174;43.198;27.824;2023-04-27T08:55:46;101371.56;;;17.39;41.37
63090;BME280;49174;43.198;27.824;2023-04-27T08:58:12;101370.50;;;17.59;40.12
63090;BME280;49174;43.198;27.824;2023-04-27T09:00:39;101367.03;;;17.89;40.20
63090;BME280;49174;43.198;27.824;2023-04-27T09:03:27;101356.47;;;18.22;40.52
63090;BME280;49174;43.198;27.824;2023-04-27T09:05:52;101357.94;;;18.37;42.22
63090;BME280;49174;43.198;27.824;2023-04-27T09:08:18;101354.41;;;18.60;41.51
63090;BME280;49174;43.198;27.824;2023-04-27T09:10:48;101359.25;;;18.46;40.35
63090;BME280;49174;43.198;27.824;2023-04-27T09:13:15;101354.47;;;18.41;40.62
63090;BME280;49174;43.198;27.824;2023-04-27T09:15:45;101352.34;;;18.31;41.33
63090;BME280;49174;43.198;27.824;2023-04-27T09:18:19;101348.41;;;18.27;41.15
63090;BME280;49174;43.198;27.824;2023-04-27T09:20:46;101359.91;;;18.18;42.57
63090;BME280;49174;43.198;27.824;2023-04-27T09:23:24;101367.59;;;18.09;39.22
63090;BME280;49174;43.198;27.824;2023-04-27T09:25:51;101364.19;;;17.77;44.10
63090;BME280;49174;43.198;27.824;2023-04-27T09:28:16;101357.75;;;17.71;37.94
63090;BME280;49174;43.198;27.824;2023-04-27T09:30:50;101354.88;;;18.03;42.92
63090;BME280;49174;43.198;27.824;2023-04-27T09:33:24;101361.38;;;18.32;42.32
63090;BME280;49174;43.198;27.824;2023-04-27T09:35:51;101367.81;;;18.49;40.96
63090;BME280;49174;43.198;27.824;2023-04-27T09:38:18;101373.28;;;18.49;41.57
63090;BME280;49174;43.198;27.824;2023-04-27T09:40:43;101368.06;;;18.06;39.66
63090;BME280;49174;43.198;27.824;2023-04-27T09:43:09;101382.16;;;18.03;41.54
63090;BME280;49174;43.198;27.824;2023-04-27T09:45:35;101373.69;;;18.23;40.34
63090;BME280;49174;43.198;27.824;2023-04-27T09:48:03;101374.09;;;18.38;39.78
63090;BME280;49174;43.198;27.824;2023-04-27T09:50:30;101361.38;;;18.32;39.12
63090;BME280;49174;43.198;27.824;2023-04-27T09:52:55;101366.66;;;18.15;41.14
63090;BME280;49174;43.198;27.824;2023-04-27T09:55:29;101358.72;;;18.14;40.86
63090;BME280;49174;43.198;27.824;2023-04-27T09:58:16;101360.81;;;18.42;38.31
63090;BME280;49174;43.198;27.824;2023-04-27T10:03:34;101345.69;;;18.93;38.10
63090;BME280;49174;43.198;27.824;2023-04-27T10:09:03;101350.41;;;19.33;37.91
63090;BME280;49174;43.198;27.824;2023-04-27T10:11:40;101339.72;;;19.31;37.05
63090;BME280;49174;43.198;27.824;2023-04-27T10:14:07;101335.66;;;19.34;37.54
63090;BME280;49174;43.198;27.824;2023-04-27T10:16:58;101344.31;;;19.42;37.32
63090;BME280;49174;43.198;27.824;2023-04-27T10:19:24;101336.28;;;19.76;39.07
63090;BME280;49174;43.198;27.824;2023-04-27T10:21:58;101337.44;;;19.92;38.01
63090;BME280;49174;43.198;27.824;2023-04-27T10:24:37;101347.56;;;20.08;37.97
63090;BME280;49174;43.198;27.824;2023-04-27T10:27:04;101346.94;;;20.18;37.27
63090;BME280;49174;43.198;27.824;2023-04-27T10:29:38;101351.81;;;20.16;38.35
63090;BME280;49174;43.198;27.824;2023-04-27T10:32:10;101346.97;;;20.35;35.96
63090;BME280;49174;43.198;27.824;2023-04-27T10:34:36;101342.63;;;20.22;36.47
63090;BME280;49174;43.198;27.824;2023-04-27T10:37:09;101349.25;;;20.09;37.66
63090;BME280;49174;43.198;27.824;2023-04-27T10:39:40;101341.91;;;19.98;37.68
63090;BME280;49174;43.198;27.824;2023-04-27T10:42:07;101340.22;;;20.09;37.02
63090;BME280;49174;43.198;27.824;2023-04-27T10:44:35;101328.50;;;20.14;36.04
63090;BME280;49174;43.198;27.824;2023-04-27T10:47:12;101340.47;;;20.41;36.75
63090;BME280;49174;43.198;27.824;2023-04-27T10:49:38;101338.75;;;19.78;36.49
63090;BME280;49174;43.198;27.824;2023-04-27T10:52:04;101346.59;;;19.86;36.83
63090;BME280;49174;43.198;27.824;2023-04-27T10:54:30;101331.84;;;19.87;36.51
63090;BME280;49174;43.198;27.824;2023-04-27T10:57:09;101340.09;;;19.63;36.71
63090;BME280;49174;43.198;27.824;2023-04-27T10:59:50;101334.47;;;19.30;37.45
63090;BME280;49174;43.198;27.824;2023-04-27T11:02:24;101332.75;;;19.52;40.24
63090;BME280;49174;43.198;27.824;2023-04-27T11:04:50;101334.16;;;19.67;37.46
63090;BME280;49174;43.198;27.824;2023-04-27T11:07:26;101323.31;;;19.72;38.52
63090;BME280;49174;43.198;27.824;2023-04-27T11:09:52;101324.53;;;19.64;36.32
63090;BME280;49174;43.198;27.824;2023-04-27T11:12:18;101332.75;;;19.64;37.18
63090;BME280;49174;43.198;27.824;2023-04-27T11:14:44;101337.72;;;19.79;37.01
63090;BME280;49174;43.198;27.824;2023-04-27T11:17:09;101327.53;;;19.91;37.00
63090;BME280;49174;43.198;27.824;2023-04-27T11:19:45;101334.09;;;19.90;35.65
63090;BME280;49174;43.198;27.824;2023-04-27T11:22:15;101325.63;;;19.92;36.58
63090;BME280;49174;43.198;27.824;2023-04-27T11:24:50;101306.56;;;20.14;37.51
63090;BME280;49174;43.198;27.824;2023-04-27T11:27:17;101316.72;;;20.30;36.49
63090;BME280;49174;43.198;27.824;2023-04-27T11:29:42;101305.66;;;20.53;37.08
63090;BME280;49174;43.198;27.824;2023-04-27T11:32:18;101308.31;;;20.65;36.61
63090;BME280;49174;43.198;27.824;2023-04-27T11:34:51;101311.00;;;20.31;35.14
63090;BME280;49174;43.198;27.824;2023-04-27T11:37:25;101319.50;;;19.61;35.89
63090;BME280;49174;43.198;27.824;2023-04-27T11:39:51;101325.78;;;19.33;36.20
63090;BME280;49174;43.198;27.824;2023-04-27T11:42:25;101322.91;;;19.28;37.12
63090;BME280;49174;43.198;27.824;2023-04-27T11:44:53;101314.34;;;19.36;37.49
63090;BME280;49174;43.198;27.824;2023-04-27T11:47:19;101318.22;;;19.11;36.07
63090;BME280;49174;43.198;27.824;2023-04-27T11:50:00;101326.50;;;19.28;37.74
63090;BME280;49174;43.198;27.824;2023-04-27T11:52:29;101315.06;;;19.43;36.68
63090;BME280;49174;43.198;27.824;2023-04-27T11:54:56;101326.81;;;19.43;37.54
63090;BME280;49174;43.198;27.824;2023-04-27T11:57:27;101331.47;;;19.43;36.43
63090;BME280;49174;43.198;27.824;2023-04-27T11:59:55;101330.38;;;19.68;36.26
63090;BME280;49174;43.198;27.824;2023-04-27T12:02:21;101318.25;;;19.92;35.70
63090;BME280;49174;43.198;27.824;2023-04-27T12:04:50;101321.00;;;19.92;37.30
63090;BME280;49174;43.198;27.824;2023-04-27T12:07:16;101325.72;;;20.25;36.75
63090;BME280;49174;43.198;27.824;2023-04-27T12:09:42;101325.53;;;20.32;35.19
63090;BME280;49174;43.198;27.824;2023-04-27T12:12:09;101324.44;;;20.16;34.96
63090;BME280;49174;43.198;27.824;2023-04-27T12:14:35;101331.06;;;20.03;34.19
63090;BME280;49174;43.198;27.824;2023-04-27T12:17:01;101336.72;;;19.45;34.61
63090;BME280;49174;43.198;27.824;2023-04-27T12:19:26;101331.41;;;18.91;35.03
63090;BME280;49174;43.198;27.824;2023-04-27T12:27:16;101348.53;;;18.33;37.15
63090;BME280;49174;43.198;27.824;2023-04-27T12:29:42;101338.69;;;18.01;37.24
63090;BME280;49174;43.198;27.824;2023-04-27T12:38:00;101347.47;;;17.36;38.90
63090;BME280;49174;43.198;27.824;2023-04-27T12:40:27;101346.72;;;17.29;38.79
63090;BME280;49174;43.198;27.824;2023-04-27T12:42:53;101349.13;;;17.37;39.99
63090;BME280;49174;43.198;27.824;2023-04-27T12:45:19;101350.25;;;17.30;38.75
63090;BME280;49174;43.198;27.824;2023-04-27T12:47:45;101348.16;;;17.13;38.41
63090;BME280;49174;43.198;27.824;2023-04-27T12:50:12;101353.31;;;16.96;39.55
63090;BME280;49174;43.198;27.824;2023-04-27T12:52:38;101353.66;;;16.88;39.70
63090;BME280;49174;43.198;27.824;2023-04-27T12:55:04;101355.38;;;17.01;40.29
63090;BME280;49174;43.198;27.824;2023-04-27T12:57:30;101364.91;;;17.54;40.51